createdAt,value
2018-04-01T00:01:29.973Z,6.20
2018-04-01T00:03:58.211Z,6.20
2018-04-01T00:06:25.222Z,6.30
2018-04-01T00:08:52.235Z,6.30
2018-04-01T00:11:19.249Z,6.20
2018-04-01T00:13:46.295Z,6.20
2018-04-01T00:16:13.292Z,6.20
2018-04-01T00:18:40.336Z,6.20
2018-04-01T00:21:07.348Z,6.20
2018-04-01T00:23:35.138Z,6.20
2018-04-01T00:26:03.112Z,6.10
2018-04-01T00:28:30.107Z,6.10
2018-04-01T00:30:57.115Z,6.10
2018-04-01T00:33:24.167Z,6.20
2018-04-01T00:35:51.171Z,6.20
2018-04-01T00:38:18.230Z,6.20
2018-04-01T00:40:46.716Z,6.00
2018-04-01T00:43:14.522Z,6.10
2018-04-01T00:45:41.527Z,6.00
2018-04-01T00:48:09.803Z,6.20
2018-04-01T00:50:37.577Z,6.10
2018-04-01T00:53:05.690Z,6.10
2018-04-01T00:55:33.531Z,6.10
2018-04-01T00:58:00.536Z,6.00
2018-04-01T01:00:28.307Z,6.10
2018-04-01T01:02:56.134Z,6.20
2018-04-01T01:05:23.347Z,6.10
2018-04-01T01:07:51.104Z,6.10
2018-04-01T01:10:18.872Z,6.10
2018-04-01T01:12:47.646Z,6.10
2018-04-01T01:15:14.652Z,6.00
2018-04-01T01:17:42.447Z,6.20
2018-04-01T01:20:10.238Z,6.10
2018-04-01T01:22:38.283Z,6.30
2018-04-01T01:25:06.142Z,6.30
2018-04-01T01:27:33.217Z,6.30
2018-04-01T01:30:00.239Z,6.30
2018-04-01T01:32:27.496Z,6.30
2018-04-01T01:34:54.484Z,6.20
2018-04-01T01:37:22.245Z,6.20
2018-04-01T01:39:49.284Z,6.10
2018-04-01T01:42:16.323Z,6.10
2018-04-01T01:44:44.131Z,6.00
2018-04-01T01:47:11.115Z,5.90
2018-04-01T01:49:38.968Z,6.00
2018-04-01T01:52:05.987Z,6.00
2018-04-01T01:54:33.005Z,6.00
2018-04-01T01:57:00.770Z,5.80
2018-04-01T01:59:28.588Z,5.70
2018-04-01T02:01:56.080Z,5.60
2018-04-01T02:04:23.115Z,5.70
2018-04-01T02:06:50.155Z,5.70
2018-04-01T02:09:17.157Z,5.80
2018-04-01T02:11:44.952Z,5.80
2018-04-01T02:14:11.966Z,5.70
2018-04-01T02:16:39.783Z,5.70
2018-04-01T02:19:06.791Z,5.60
2018-04-01T02:21:33.807Z,5.70
2018-04-01T02:24:01.725Z,5.70
2018-04-01T02:26:29.896Z,5.70
2018-04-01T02:28:56.892Z,5.60
2018-04-01T02:31:23.904Z,5.70
2018-04-01T02:33:50.964Z,5.60
2018-04-01T02:36:17.982Z,5.60
2018-04-01T02:38:45.022Z,5.60
2018-04-01T02:41:12.820Z,5.60
2018-04-01T02:43:39.853Z,5.50
2018-04-01T02:46:06.939Z,5.80
2018-04-01T02:48:33.947Z,5.80
2018-04-01T02:51:00.983Z,5.80
2018-04-01T02:53:28.640Z,5.80
2018-04-01T02:55:56.427Z,5.60
2018-04-01T02:58:23.429Z,5.50
2018-04-01T03:00:50.468Z,5.70
2018-04-01T03:03:17.478Z,5.80
2018-04-01T03:05:44.977Z,5.80
2018-04-01T03:08:12.029Z,5.80
2018-04-01T03:10:39.022Z,5.70
2018-04-01T03:13:06.107Z,5.70
2018-04-01T03:15:33.353Z,5.70
2018-04-01T03:18:00.384Z,5.70
2018-04-01T03:20:27.407Z,5.70
2018-04-01T03:22:55.160Z,5.60
2018-04-01T03:25:22.207Z,5.50
2018-04-01T03:27:50.002Z,5.70
2018-04-01T03:30:17.012Z,5.60
2018-04-01T03:32:44.800Z,5.70
2018-04-01T03:35:11.814Z,5.60
2018-04-01T03:37:38.803Z,5.60
2018-04-01T03:40:07.215Z,5.70
2018-04-01T03:42:34.251Z,5.70
2018-04-01T03:45:01.244Z,5.70
2018-04-01T03:47:28.259Z,5.80
2018-04-01T03:49:55.260Z,5.70
2018-04-01T03:52:22.287Z,5.70
2018-04-01T03:54:49.291Z,5.70
2018-04-01T03:57:16.292Z,5.70
2018-04-01T03:59:43.312Z,5.70
2018-04-01T04:02:10.599Z,5.70
2018-04-01T04:04:38.402Z,5.60
2018-04-01T04:07:06.152Z,5.60
2018-04-01T04:09:33.745Z,5.60
2018-04-01T04:12:01.297Z,5.60
2018-04-01T04:14:28.311Z,5.70
2018-04-01T04:16:56.115Z,5.60
2018-04-01T04:19:23.108Z,5.50
2018-04-01T04:21:50.125Z,5.60
2018-04-01T04:24:17.121Z,5.60
2018-04-01T04:26:44.145Z,5.60
2018-04-01T04:29:11.642Z,5.60
2018-04-01T04:31:38.635Z,5.70
2018-04-01T04:34:05.669Z,5.70
2018-04-01T04:36:32.749Z,5.60
2018-04-01T04:38:59.730Z,5.70
2018-04-01T04:41:26.741Z,5.70
2018-04-01T04:43:53.757Z,5.70
2018-04-01T04:46:21.240Z,5.70
2018-04-01T04:48:48.721Z,5.60
2018-04-01T04:51:16.547Z,5.70
2018-04-01T04:53:43.600Z,5.60
2018-04-01T04:56:10.608Z,5.70
2018-04-01T04:58:37.609Z,5.80
2018-04-01T05:01:04.619Z,5.80
2018-04-01T05:03:31.616Z,5.80
2018-04-01T05:05:58.617Z,5.70
2018-04-01T05:08:25.712Z,5.70
2018-04-01T05:10:52.891Z,5.80
2018-04-01T05:13:19.923Z,5.80
2018-04-01T05:15:46.964Z,5.80
2018-04-01T05:18:14.761Z,5.70
2018-04-01T05:20:42.003Z,5.60
2018-04-01T05:23:09.780Z,5.70
2018-04-01T05:25:36.826Z,5.60
2018-04-01T05:28:03.904Z,5.70
2018-04-01T05:30:30.916Z,5.70
2018-04-01T05:32:58.658Z,5.80
2018-04-01T05:35:25.692Z,5.70
2018-04-01T05:37:52.723Z,5.80
2018-04-01T05:40:19.806Z,5.70
2018-04-01T05:42:47.061Z,5.70
2018-04-01T05:45:14.876Z,5.80
2018-04-01T05:47:42.590Z,5.70
2018-04-01T05:50:10.379Z,5.80
2018-04-01T05:52:37.427Z,5.70
2018-04-01T05:55:04.428Z,5.60
2018-04-01T05:57:31.444Z,5.50
2018-04-01T05:59:58.468Z,5.50
2018-04-01T06:02:25.531Z,5.50
2018-04-01T06:04:52.560Z,5.30
2018-04-01T06:07:20.363Z,5.30
2018-04-01T06:09:47.370Z,5.20
2018-04-01T06:12:15.156Z,5.30
2018-04-01T06:14:42.164Z,5.20
2018-04-01T06:17:09.931Z,5.40
2018-04-01T06:19:36.951Z,5.30
2018-04-01T06:22:03.935Z,5.40
2018-04-01T06:24:31.722Z,5.50
2018-04-01T06:26:58.725Z,5.40
2018-04-01T06:29:26.846Z,5.60
2018-04-01T06:31:53.856Z,5.70
2018-04-01T06:34:20.856Z,5.80
2018-04-01T06:36:47.870Z,5.80
2018-04-01T06:39:15.621Z,5.80
2018-04-01T06:41:42.645Z,5.70
2018-04-01T06:44:09.652Z,5.90
2018-04-01T06:46:36.680Z,5.90
2018-04-01T06:49:04.435Z,6.00
2018-04-01T06:51:31.472Z,5.90
2018-04-01T06:53:58.476Z,5.90
2018-04-01T06:56:25.480Z,5.80
2018-04-01T06:58:53.296Z,6.10
2018-04-01T07:01:20.323Z,6.00
2018-04-01T07:03:47.354Z,6.50
2018-04-01T07:06:15.610Z,6.70
2018-04-01T07:08:42.653Z,6.70
2018-04-01T07:11:10.243Z,6.80
2018-04-01T07:13:38.024Z,6.80
2018-04-01T07:16:05.067Z,6.70
2018-04-01T07:18:32.098Z,6.70
2018-04-01T07:20:59.882Z,6.50
2018-04-01T07:23:26.883Z,6.40
2018-04-01T07:25:53.903Z,6.30
2018-04-01T07:28:20.915Z,6.10
2018-04-01T07:30:48.706Z,5.80
2018-04-01T07:33:15.791Z,5.80
2018-04-01T07:35:42.831Z,5.70
2018-04-01T07:38:10.580Z,5.50
2018-04-01T07:40:37.578Z,5.30
2018-04-01T07:43:05.528Z,5.30
2018-04-01T07:45:32.560Z,5.30
2018-04-01T07:48:00.521Z,5.40
2018-04-01T07:50:27.565Z,5.50
2018-04-01T07:52:54.572Z,5.60
2018-04-01T07:55:21.618Z,5.70
2018-04-01T07:57:49.393Z,5.60
2018-04-01T08:00:16.433Z,5.60
2018-04-01T08:02:44.215Z,6.00
2018-04-01T08:05:11.214Z,6.00
2018-04-01T08:07:38.255Z,6.30
2018-04-01T08:10:05.375Z,6.40
2018-04-01T08:12:32.406Z,6.60
2018-04-01T08:14:59.472Z,6.90
2018-04-01T08:17:26.528Z,6.90
2018-04-01T08:19:56.709Z,7.10
2018-04-01T08:22:24.584Z,7.40
2018-04-01T08:24:52.403Z,7.50
2018-04-01T08:27:19.446Z,7.40
2018-04-01T08:29:46.517Z,7.60
2018-04-01T08:32:14.377Z,8.00
2018-04-01T08:34:41.454Z,7.90
2018-04-01T08:37:09.263Z,8.40
2018-04-01T08:39:37.468Z,8.30
2018-04-01T08:42:04.519Z,8.40
2018-04-01T08:44:31.532Z,8.50
2018-04-01T08:46:58.968Z,8.40
2018-04-01T08:49:26.601Z,8.00
2018-04-01T08:51:53.659Z,7.80
2018-04-01T08:54:21.437Z,7.70
2018-04-01T08:56:49.236Z,7.50
2018-04-01T08:59:16.300Z,7.40
2018-04-01T09:01:43.269Z,7.50
2018-04-01T09:04:10.874Z,7.30
2018-04-01T09:06:37.911Z,7.30
2018-04-01T09:09:04.940Z,7.10
2018-04-01T09:11:32.686Z,7.00
2018-04-01T09:13:59.717Z,6.80
2018-04-01T09:16:26.950Z,6.70
2018-04-01T09:18:53.967Z,6.60
2018-04-01T09:21:21.762Z,6.60
2018-04-01T09:23:49.131Z,6.50
2018-04-01T09:26:16.156Z,6.40
2018-04-01T09:28:43.155Z,6.60
2018-04-01T09:31:10.166Z,6.70
2018-04-01T09:33:38.060Z,6.80
2018-04-01T09:36:05.141Z,6.90
2018-04-01T09:38:32.144Z,7.00
2018-04-01T09:40:59.188Z,7.10
2018-04-01T09:43:26.830Z,7.10
2018-04-01T09:45:53.881Z,6.80
2018-04-01T09:48:20.928Z,6.70
2018-04-01T09:50:47.973Z,6.90
2018-04-01T09:53:15.011Z,7.00
2018-04-01T09:55:42.841Z,7.50
2018-04-01T09:58:09.885Z,7.40
2018-04-01T10:01:00.919Z,7.80
2018-04-01T10:03:29.964Z,8.50
2018-04-01T10:05:57.498Z,8.40
2018-04-01T10:08:25.032Z,8.50
2018-04-01T10:10:53.313Z,8.00
2018-04-01T10:13:21.636Z,7.80
2018-04-01T10:15:49.896Z,7.70
2018-04-01T10:18:17.405Z,7.90
2018-04-01T10:20:44.928Z,8.00
2018-04-01T10:23:19.040Z,8.10
2018-04-01T10:25:46.611Z,8.30
2018-04-01T10:28:14.916Z,8.70
2018-04-01T10:30:42.505Z,8.70
2018-04-01T10:33:10.112Z,8.70
2018-04-01T10:35:37.857Z,8.40
2018-04-01T10:38:05.392Z,8.40
2018-04-01T10:40:34.193Z,8.70
2018-04-01T10:43:01.804Z,8.50
2018-04-01T10:45:29.297Z,9.00
2018-04-01T10:47:57.628Z,8.90
2018-04-01T10:50:25.157Z,8.80
2018-04-01T10:52:53.677Z,9.00
2018-04-01T10:55:20.711Z,8.90
2018-04-01T10:57:47.748Z,8.90
2018-04-01T11:00:14.794Z,8.80
2018-04-01T11:02:41.845Z,8.80
2018-04-01T11:05:08.927Z,8.40
2018-04-01T11:07:35.981Z,7.80
2018-04-01T11:10:03.016Z,6.00
2018-04-01T11:12:30.036Z,5.20
2018-04-01T11:14:57.056Z,5.00
2018-04-01T11:17:24.863Z,5.00
2018-04-01T11:19:51.870Z,4.90
2018-04-01T11:22:19.652Z,5.00
2018-04-01T11:24:47.418Z,5.20
2018-04-01T11:27:14.452Z,5.10
2018-04-01T11:29:42.226Z,6.00
2018-04-01T11:32:09.235Z,5.90
2018-04-01T11:34:36.319Z,6.40
2018-04-01T11:37:03.527Z,6.80
2018-04-01T11:39:30.548Z,7.00
2018-04-01T11:41:57.562Z,7.00
2018-04-01T11:44:25.369Z,7.00
2018-04-01T11:46:52.380Z,6.90
2018-04-01T11:49:20.152Z,6.90
2018-04-01T11:51:47.258Z,6.90
2018-04-01T11:54:14.305Z,7.10
2018-04-01T11:56:41.386Z,7.40
2018-04-01T11:59:08.396Z,7.80
2018-04-01T12:01:35.426Z,7.90
2018-04-01T12:04:02.429Z,7.70
2018-04-01T12:06:30.219Z,7.70
2018-04-01T12:08:57.259Z,7.60
2018-04-01T12:11:24.268Z,8.10
2018-04-01T12:13:51.308Z,8.10
2018-04-01T12:16:18.329Z,8.40
2018-04-01T12:18:45.406Z,8.60
2018-04-01T12:21:12.436Z,9.00
2018-04-01T12:23:39.489Z,9.10
2018-04-01T12:26:06.540Z,9.00
2018-04-01T12:28:33.576Z,8.50
2018-04-01T12:31:00.615Z,8.60
2018-04-01T12:33:27.645Z,8.90
2018-04-01T12:35:54.670Z,8.90
2018-04-01T12:38:21.697Z,8.70
2018-04-01T12:40:48.725Z,8.50
2018-04-01T12:43:15.733Z,8.20
2018-04-01T12:45:42.746Z,8.20
2018-04-01T12:48:09.787Z,8.20
2018-04-01T12:50:36.839Z,8.10
2018-04-01T12:53:03.880Z,8.30
2018-04-01T12:55:30.909Z,8.70
2018-04-01T12:57:57.958Z,8.80
2018-04-01T13:00:24.954Z,8.70
2018-04-01T13:02:52.736Z,8.30
2018-04-01T13:05:20.520Z,8.20
2018-04-01T13:07:47.599Z,8.20
2018-04-01T13:10:14.635Z,7.80
2018-04-01T13:12:41.651Z,7.70
2018-04-01T13:15:08.740Z,7.50
2018-04-01T13:17:35.779Z,7.20
2018-04-01T13:20:02.824Z,7.00
2018-04-01T13:22:29.977Z,6.90
2018-04-01T13:24:56.989Z,6.90
2018-04-01T13:27:24.822Z,6.70
2018-04-01T13:29:51.824Z,6.60
2018-04-01T13:32:18.867Z,6.70
2018-04-01T13:34:46.587Z,6.80
2018-04-01T13:37:14.468Z,6.70
2018-04-01T13:39:41.480Z,6.60
2018-04-01T13:42:08.509Z,6.60
2018-04-01T13:44:35.576Z,6.70
2018-04-01T13:47:02.836Z,6.70
2018-04-01T13:49:29.896Z,6.90
2018-04-01T13:51:57.197Z,7.00
2018-04-01T13:54:24.224Z,7.00
2018-04-01T13:56:51.244Z,7.10
2018-04-01T13:59:18.244Z,7.20
2018-04-01T14:01:46.970Z,7.40
2018-04-01T14:04:13.989Z,7.60
2018-04-01T14:06:41.069Z,7.90
2018-04-01T14:09:08.884Z,7.70
2018-04-01T14:11:35.933Z,7.60
2018-04-01T14:14:03.734Z,7.70
2018-04-01T14:16:31.563Z,7.70
2018-04-01T14:18:59.368Z,7.90
2018-04-01T14:21:26.416Z,7.90
2018-04-01T14:23:53.469Z,8.00
2018-04-01T14:26:20.493Z,7.90
2018-04-01T14:28:47.517Z,8.00
2018-04-01T14:31:15.291Z,8.10
2018-04-01T14:33:42.363Z,8.00
2018-04-01T14:36:09.399Z,8.10
2018-04-01T14:38:38.380Z,7.90
2018-04-01T14:41:05.412Z,7.60
2018-04-01T14:43:32.519Z,7.50
2018-04-01T14:45:59.544Z,7.20
2018-04-01T14:48:26.545Z,7.20
2018-04-01T14:50:53.592Z,7.20
2018-04-01T14:53:20.600Z,7.30
2018-04-01T14:55:48.461Z,7.60
2018-04-01T14:58:17.253Z,7.50
2018-04-01T15:00:44.272Z,7.60
2018-04-01T15:03:12.073Z,7.70
2018-04-01T15:05:39.628Z,7.60
2018-04-01T15:08:07.592Z,7.60
2018-04-01T15:10:34.593Z,7.60
2018-04-01T15:13:01.612Z,7.60
2018-04-01T15:15:29.540Z,7.60
2018-04-01T15:17:56.568Z,7.60
2018-04-01T15:20:24.400Z,7.70
2018-04-01T15:22:53.020Z,7.60
2018-04-01T15:25:20.051Z,7.60
2018-04-01T15:27:47.051Z,7.70
2018-04-01T15:30:14.089Z,7.60
2018-04-01T15:32:41.116Z,7.60
2018-04-01T15:35:08.171Z,7.50
2018-04-01T15:37:35.961Z,7.40
2018-04-01T15:40:04.093Z,7.30
2018-04-01T15:42:31.144Z,7.30
2018-04-01T15:44:58.200Z,7.20
2018-04-01T15:47:26.337Z,7.00
2018-04-01T15:49:53.896Z,6.90
2018-04-01T15:52:20.973Z,7.00
2018-04-01T15:54:48.452Z,6.90
2018-04-01T15:57:16.258Z,7.00
2018-04-01T15:59:43.275Z,6.90
2018-04-01T16:02:10.713Z,7.00
2018-04-01T16:04:37.916Z,7.00
2018-04-01T16:07:05.693Z,7.00
2018-04-01T16:09:32.814Z,6.90
2018-04-01T16:11:59.861Z,7.10
2018-04-01T16:14:26.868Z,7.20
2018-04-01T16:16:54.261Z,7.20
2018-04-01T16:19:21.924Z,7.20
2018-04-01T16:21:49.097Z,7.10
2018-04-01T16:24:16.136Z,7.00
2018-04-01T16:26:43.180Z,6.90
2018-04-01T16:29:10.210Z,6.90
2018-04-01T16:31:38.213Z,6.90
2018-04-01T16:34:05.258Z,6.80
2018-04-01T16:36:32.275Z,7.00
2018-04-01T16:38:59.333Z,7.00
2018-04-01T16:41:26.344Z,7.00
2018-04-01T16:43:53.400Z,6.90
2018-04-01T16:46:21.248Z,6.80
2018-04-01T16:48:48.244Z,6.70
2018-04-01T16:51:15.941Z,6.70
2018-04-01T16:53:42.952Z,6.70
2018-04-01T16:56:10.743Z,6.60
2018-04-01T16:58:37.821Z,6.60
2018-04-01T17:01:04.849Z,6.70
2018-04-01T17:03:31.872Z,6.70
2018-04-01T17:05:58.867Z,6.60
2018-04-01T17:08:25.904Z,6.70
2018-04-01T17:10:53.344Z,6.70
2018-04-01T17:13:20.415Z,6.70
2018-04-01T17:15:47.615Z,6.60
2018-04-01T17:18:14.675Z,6.60
2018-04-01T17:20:41.669Z,6.60
2018-04-01T17:23:09.496Z,6.60
2018-04-01T17:25:36.525Z,6.50
2018-04-01T17:28:04.302Z,6.50
2018-04-01T17:30:31.334Z,6.40
2018-04-01T17:32:59.110Z,6.40
2018-04-01T17:35:26.189Z,6.30
2018-04-01T17:37:53.209Z,6.40
2018-04-01T17:40:20.218Z,6.20
2018-04-01T17:42:47.345Z,6.00
2018-04-01T17:45:14.453Z,6.10
2018-04-01T17:47:41.503Z,6.10
2018-04-01T17:50:09.391Z,6.20
2018-04-01T17:52:36.621Z,6.20
2018-04-01T17:55:03.634Z,6.10
2018-04-01T17:57:30.633Z,6.10
2018-04-01T17:59:57.712Z,6.00
2018-04-01T18:02:24.721Z,5.80
2018-04-01T18:04:51.815Z,5.80
2018-04-01T18:07:18.838Z,5.70
2018-04-01T18:09:45.885Z,5.60
2018-04-01T18:12:12.911Z,5.40
2018-04-01T18:14:40.672Z,5.40
2018-04-01T18:17:08.568Z,5.30
2018-04-01T18:19:35.612Z,5.20
2018-04-01T18:22:02.655Z,5.30
2018-04-01T18:24:29.682Z,5.20
2018-04-01T18:26:56.729Z,5.30
2018-04-01T18:29:23.748Z,5.30
2018-04-01T18:31:50.789Z,5.30
2018-04-01T18:34:18.631Z,5.30
2018-04-01T18:36:45.764Z,5.30
2018-04-01T18:39:13.040Z,5.20
2018-04-01T18:41:40.159Z,5.20
2018-04-01T18:44:08.737Z,5.10
2018-04-01T18:46:36.630Z,5.10
2018-04-01T18:49:03.637Z,5.00
2018-04-01T18:51:31.421Z,5.00
2018-04-01T18:53:59.198Z,5.10
2018-04-01T18:56:26.215Z,5.00
2018-04-01T18:58:53.221Z,5.10
2018-04-01T19:01:20.235Z,5.00
2018-04-01T19:03:47.233Z,5.00
2018-04-01T19:06:14.261Z,4.90
2018-04-01T19:08:41.304Z,5.00
2018-04-01T19:11:08.297Z,4.90
2018-04-01T19:13:35.315Z,4.90
2018-04-01T19:16:02.815Z,4.90
2018-04-01T19:18:31.094Z,4.90
2018-04-01T19:20:59.346Z,4.80
2018-04-01T19:23:26.837Z,4.80
2018-04-01T19:25:55.117Z,5.00
2018-04-01T19:28:23.379Z,4.90
2018-04-01T19:30:51.674Z,4.90
2018-04-01T19:33:19.931Z,4.90
2018-04-01T19:35:48.211Z,4.90
2018-04-01T19:38:16.480Z,4.90
2018-04-01T19:40:43.973Z,4.80
2018-04-01T19:43:11.516Z,4.90
2018-04-01T19:45:39.000Z,4.90
2018-04-01T19:48:06.516Z,4.90
2018-04-01T19:50:34.621Z,4.80
2018-04-01T19:53:01.521Z,4.80
2018-04-01T19:55:29.008Z,4.70
2018-04-01T19:57:57.281Z,4.70
2018-04-01T20:00:25.555Z,4.70
2018-04-01T20:02:53.812Z,4.70
2018-04-01T20:05:21.338Z,4.60
2018-04-01T20:07:48.850Z,4.70
2018-04-01T20:10:17.145Z,4.60
2018-04-01T20:12:45.410Z,4.60
2018-04-01T20:15:13.658Z,4.50
2018-04-01T20:17:41.186Z,4.40
2018-04-01T20:20:08.686Z,4.50
2018-04-01T20:22:36.187Z,4.60
2018-04-01T20:25:03.713Z,4.50
2018-04-01T20:27:31.259Z,4.60
2018-04-01T20:29:58.768Z,4.60
2018-04-01T20:32:26.265Z,4.60
2018-04-01T20:34:53.783Z,4.60
2018-04-01T20:37:21.269Z,4.50
2018-04-01T20:39:49.076Z,4.50
2018-04-01T20:42:16.608Z,4.60
2018-04-01T20:44:44.150Z,4.60
2018-04-01T20:47:11.645Z,4.70
2018-04-01T20:49:39.139Z,4.80
2018-04-01T20:52:07.421Z,4.90
2018-04-01T20:54:34.907Z,4.80
2018-04-01T20:57:02.416Z,5.00
2018-04-01T20:59:29.990Z,5.00
2018-04-01T21:01:58.284Z,4.90
2018-04-01T21:04:25.787Z,4.80
2018-04-01T21:06:53.276Z,4.90
2018-04-01T21:09:20.864Z,5.00
2018-04-01T21:11:48.348Z,4.90
2018-04-01T21:14:15.869Z,5.00
2018-04-01T21:16:44.123Z,5.00
2018-04-01T21:19:11.622Z,5.00
2018-04-01T21:21:39.111Z,5.00
2018-04-01T21:24:06.621Z,5.00
2018-04-01T21:26:34.896Z,5.00
2018-04-01T21:29:02.388Z,4.90
2018-04-01T21:31:29.920Z,5.00
2018-04-01T21:33:58.170Z,5.20
2018-04-01T21:36:25.676Z,5.10
2018-04-01T21:38:53.167Z,5.00
2018-04-01T21:41:20.663Z,5.00
2018-04-01T21:43:48.940Z,4.90
2018-04-01T21:46:17.202Z,4.80
2018-04-01T21:48:44.715Z,4.80
2018-04-01T21:51:12.232Z,4.80
2018-04-01T21:53:40.530Z,4.90
2018-04-01T21:56:08.798Z,4.90
2018-04-01T21:58:37.072Z,4.90
2018-04-01T22:01:05.342Z,4.70
2018-04-01T22:03:33.600Z,4.70
2018-04-01T22:06:01.151Z,4.70
2018-04-01T22:08:28.787Z,4.80
2018-04-01T22:10:57.220Z,4.90
2018-04-01T22:13:26.247Z,4.90
2018-04-01T22:15:53.728Z,4.80
2018-04-01T22:18:21.266Z,4.80
2018-04-01T22:20:48.995Z,4.70
2018-04-01T22:23:16.628Z,4.80
2018-04-01T22:25:45.064Z,4.80
2018-04-01T22:28:12.794Z,4.80
2018-04-01T22:30:41.191Z,4.90
2018-04-01T22:33:09.464Z,4.80
2018-04-01T22:35:36.963Z,4.70
2018-04-01T22:38:04.458Z,4.80
2018-04-01T22:40:32.089Z,4.70
2018-04-01T22:42:59.572Z,4.70
2018-04-01T22:45:27.062Z,4.70
2018-04-01T22:47:54.575Z,4.70
2018-04-01T22:50:22.074Z,4.50
2018-04-01T22:52:49.580Z,4.50
2018-04-01T22:55:17.077Z,4.40
2018-04-01T22:57:44.621Z,4.40
2018-04-01T23:00:12.916Z,4.20
2018-04-01T23:02:40.367Z,4.10
2018-04-01T23:05:07.897Z,4.20
2018-04-01T23:07:35.382Z,4.20
2018-04-01T23:10:02.891Z,4.10
2018-04-01T23:12:31.169Z,4.20
2018-04-01T23:14:59.440Z,4.20
2018-04-01T23:17:27.716Z,4.10
2018-04-01T23:19:55.972Z,4.10
2018-04-01T23:22:24.271Z,4.10
2018-04-01T23:24:52.522Z,4.00
2018-04-01T23:27:20.012Z,3.90
2018-04-01T23:29:48.294Z,4.00
2018-04-01T23:32:16.552Z,4.00
2018-04-01T23:34:44.835Z,3.90
2018-04-01T23:37:13.110Z,3.90
2018-04-01T23:39:41.372Z,4.10
2018-04-01T23:42:08.884Z,3.90
2018-04-01T23:44:36.420Z,4.00
2018-04-01T23:47:03.901Z,4.00
2018-04-01T23:49:31.390Z,3.90
2018-04-01T23:51:58.904Z,3.90
2018-04-01T23:54:26.404Z,3.90
2018-04-01T23:56:53.904Z,4.00
2018-04-01T23:59:22.175Z,4.00
